createdAt,value
2022-08-09T00:01:03.731Z,19.89
2022-08-09T00:04:03.650Z,19.87
2022-08-09T00:06:24.006Z,19.83
2022-08-09T00:08:57.564Z,19.82
2022-08-09T00:11:55.048Z,19.80
2022-08-09T00:14:17.383Z,19.77
2022-08-09T00:16:50.688Z,19.75
2022-08-09T00:19:19.311Z,19.72
2022-08-09T00:21:56.565Z,19.69
2022-08-09T00:24:27.186Z,19.65
2022-08-09T00:26:57.330Z,19.63
2022-08-09T00:29:39.685Z,19.59
2022-08-09T00:32:26.539Z,19.57
2022-08-09T00:34:56.641Z,19.54
2022-08-09T00:37:32.296Z,19.51
2022-08-09T00:40:13.837Z,19.50
2022-08-09T00:44:13.332Z,19.46
2022-08-09T00:45:37.954Z,19.43
2022-08-09T00:48:19.552Z,19.40
2022-08-09T00:50:52.314Z,19.38
2022-08-09T00:53:24.299Z,19.36
2022-08-09T00:56:04.941Z,19.34
2022-08-09T00:58:38.220Z,19.31
2022-08-09T01:01:16.249Z,19.29
2022-08-09T01:03:55.029Z,19.27
2022-08-09T01:06:35.161Z,19.24
2022-08-09T01:09:36.563Z,19.21
2022-08-09T01:12:18.878Z,19.17
2022-08-09T01:14:54.087Z,19.15
2022-08-09T01:17:34.284Z,19.13
2022-08-09T01:20:06.106Z,19.10
2022-08-09T01:22:54.762Z,19.09
2022-08-09T01:25:41.841Z,19.07
2022-08-09T01:28:12.636Z,19.03
2022-08-09T01:30:51.736Z,18.98
2022-08-09T01:33:24.978Z,18.95
2022-08-09T01:36:02.623Z,18.93
2022-08-09T01:38:40.028Z,18.91
2022-08-09T01:41:13.386Z,18.89
2022-08-09T01:43:51.778Z,18.89
2022-08-09T01:46:25.109Z,18.86
2022-08-09T01:49:00.172Z,18.84
2022-08-09T01:51:42.777Z,18.82
2022-08-09T01:54:14.973Z,18.80
2022-08-09T01:56:47.097Z,18.78
2022-08-09T01:59:23.722Z,18.75
2022-08-09T02:01:59.750Z,18.74
2022-08-09T02:04:32.733Z,18.71
2022-08-09T02:07:17.932Z,18.68
2022-08-09T02:09:59.845Z,18.65
2022-08-09T02:12:31.492Z,18.63
2022-08-09T02:15:06.432Z,18.60
2022-08-09T02:18:00.041Z,18.57
2022-08-09T02:20:32.903Z,18.54
2022-08-09T02:23:09.007Z,18.53
2022-08-09T02:25:42.301Z,18.50
2022-08-09T02:28:19.017Z,18.48
2022-08-09T02:30:51.892Z,18.46
2022-08-09T02:33:38.371Z,18.44
2022-08-09T02:36:18.697Z,18.42
2022-08-09T02:38:51.769Z,18.39
2022-08-09T02:41:27.486Z,18.37
2022-08-09T02:44:03.060Z,18.35
2022-08-09T02:46:42.045Z,18.31
2022-08-09T02:49:19.226Z,18.29
2022-08-09T02:51:59.970Z,18.27
2022-08-09T02:54:35.206Z,18.23
2022-08-09T02:57:23.112Z,18.20
2022-08-09T03:00:20.428Z,18.18
2022-08-09T03:02:46.350Z,18.16
2022-08-09T03:05:28.727Z,18.13
2022-08-09T03:08:02.045Z,18.11
2022-08-09T03:10:32.456Z,18.09
2022-08-09T03:13:01.818Z,18.07
2022-08-09T03:16:04.933Z,18.07
2022-08-09T03:18:30.495Z,18.05
2022-08-09T03:21:01.598Z,18.04
2022-08-09T03:23:30.399Z,18.04
2022-08-09T03:26:04.825Z,18.03
2022-08-09T03:28:35.003Z,18.01
2022-08-09T03:31:17.923Z,18.00
2022-08-09T03:33:53.484Z,17.98
2022-08-09T03:36:27.453Z,17.98
2022-08-09T03:38:57.147Z,17.96
2022-08-09T03:41:30.119Z,17.97
2022-08-09T03:44:15.461Z,17.96
2022-08-09T03:46:44.904Z,17.95
2022-08-09T03:49:19.228Z,17.94
2022-08-09T03:51:59.086Z,17.93
2022-08-09T03:54:32.919Z,17.91
2022-08-09T03:57:18.404Z,17.87
2022-08-09T03:59:54.970Z,17.86
2022-08-09T04:02:30.505Z,17.85
2022-08-09T04:05:06.584Z,17.83
2022-08-09T04:07:53.454Z,17.83
2022-08-09T04:10:28.807Z,17.82
2022-08-09T04:13:01.412Z,17.81
2022-08-09T04:16:18.111Z,17.80
2022-08-09T04:18:25.119Z,17.78
2022-08-09T04:20:55.386Z,17.78
2022-08-09T04:23:25.072Z,17.76
2022-08-09T04:25:57.314Z,17.76
2022-08-09T04:28:33.688Z,17.75
2022-08-09T04:31:09.717Z,17.73
2022-08-09T04:33:51.776Z,17.73
2022-08-09T04:36:28.822Z,17.73
2022-08-09T04:38:59.163Z,17.72
2022-08-09T04:41:32.228Z,17.72
2022-08-09T04:44:07.065Z,17.69
2022-08-09T04:46:58.705Z,17.69
2022-08-09T04:49:52.863Z,17.68
2022-08-09T04:52:27.070Z,17.69
2022-08-09T04:54:56.793Z,17.68
2022-08-09T04:57:58.785Z,17.68
2022-08-09T05:00:17.386Z,17.67
2022-08-09T05:02:51.828Z,17.67
2022-08-09T05:05:31.737Z,17.67
2022-08-09T05:08:14.070Z,17.65
2022-08-09T05:10:43.959Z,17.67
2022-08-09T05:13:14.270Z,17.67
2022-08-09T05:15:48.424Z,17.68
2022-08-09T05:18:38.122Z,17.69
2022-08-09T05:21:22.949Z,17.71
2022-08-09T05:23:59.771Z,17.72
2022-08-09T05:26:41.116Z,17.73
2022-08-09T05:29:21.472Z,17.74
2022-08-09T05:31:56.302Z,17.73
2022-08-09T05:34:30.712Z,17.74
2022-08-09T05:37:06.128Z,17.75
2022-08-09T05:39:43.786Z,17.75
2022-08-09T05:42:17.597Z,17.75
2022-08-09T05:44:52.454Z,17.76
2022-08-09T05:47:22.606Z,17.77
2022-08-09T05:50:30.835Z,17.79
2022-08-09T05:52:41.940Z,17.80
2022-08-09T05:55:20.512Z,17.81
2022-08-09T05:57:56.420Z,17.83
2022-08-09T06:00:26.673Z,17.84
2022-08-09T06:03:01.245Z,17.85
2022-08-09T06:05:50.680Z,17.87
2022-08-09T06:08:24.239Z,17.88
2022-08-09T06:10:58.378Z,17.92
2022-08-09T06:13:34.099Z,17.94
2022-08-09T06:16:05.047Z,17.96
2022-08-09T06:18:34.123Z,17.98
2022-08-09T06:21:04.243Z,18.01
2022-08-09T06:23:55.043Z,18.03
2022-08-09T06:26:28.674Z,18.07
2022-08-09T06:29:01.103Z,18.10
2022-08-09T06:31:40.633Z,18.12
2022-08-09T06:34:23.395Z,18.16
2022-08-09T06:36:57.336Z,18.19
2022-08-09T06:39:48.610Z,18.24
2022-08-09T06:42:25.013Z,18.27
2022-08-09T06:45:00.184Z,18.31
2022-08-09T06:47:39.570Z,18.36
2022-08-09T06:50:13.361Z,18.39
2022-08-09T06:52:47.378Z,18.44
2022-08-09T06:55:23.107Z,18.48
2022-08-09T06:58:02.571Z,18.52
2022-08-09T07:00:51.426Z,18.58
2022-08-09T07:03:29.357Z,18.63
2022-08-09T07:06:03.497Z,18.69
2022-08-09T07:08:37.234Z,18.74
2022-08-09T07:11:12.637Z,18.80
2022-08-09T07:14:04.436Z,18.86
2022-08-09T07:16:41.232Z,18.92
2022-08-09T07:19:18.828Z,18.99
2022-08-09T07:21:56.998Z,19.06
2022-08-09T07:24:40.264Z,19.10
2022-08-09T07:27:28.240Z,19.16
2022-08-09T07:30:05.648Z,19.22
2022-08-09T07:32:35.494Z,19.28
2022-08-09T07:35:10.613Z,19.34
2022-08-09T07:37:45.579Z,19.39
2022-08-09T07:40:18.586Z,19.45
2022-08-09T07:42:52.312Z,19.50
2022-08-09T07:45:39.208Z,19.56
2022-08-09T07:48:25.640Z,19.63
2022-08-09T07:51:09.949Z,19.71
2022-08-09T07:54:07.186Z,19.78
2022-08-09T07:56:44.932Z,19.85
2022-08-09T07:59:34.017Z,19.92
2022-08-09T08:02:09.553Z,19.99
2022-08-09T08:04:38.952Z,20.06
2022-08-09T08:07:57.204Z,20.14
2022-08-09T08:10:07.682Z,20.20
2022-08-09T08:12:43.547Z,20.27
2022-08-09T08:15:17.372Z,20.35
2022-08-09T08:17:53.722Z,20.44
2022-08-09T08:20:28.850Z,20.53
2022-08-09T08:23:03.630Z,20.60
2022-08-09T08:25:46.478Z,20.68
2022-08-09T08:28:17.968Z,20.76
2022-08-09T08:30:55.042Z,20.83
2022-08-09T08:33:25.733Z,20.90
2022-08-09T08:36:13.161Z,20.99
2022-08-09T08:38:56.960Z,21.06
2022-08-09T08:41:41.887Z,21.11
2022-08-09T08:44:15.517Z,21.17
2022-08-09T08:47:02.689Z,21.22
2022-08-09T08:49:47.956Z,21.28
2022-08-09T08:55:11.582Z,21.41
2022-08-09T08:57:43.822Z,21.46
2022-08-09T09:00:30.358Z,21.52
2022-08-09T09:03:11.137Z,21.59
2022-08-09T09:06:00.909Z,21.67
2022-08-09T09:08:37.712Z,21.75
2022-08-09T09:11:09.085Z,21.82
2022-08-09T09:13:56.307Z,21.90
2022-08-09T09:16:31.898Z,21.98
2022-08-09T09:19:37.005Z,22.04
2022-08-09T09:22:05.185Z,22.13
2022-08-09T09:24:40.509Z,22.21
2022-08-09T09:28:02.850Z,22.28
2022-08-09T09:30:27.392Z,22.36
2022-08-09T09:33:15.339Z,22.43
2022-08-09T09:36:01.703Z,22.50
2022-08-09T09:38:43.542Z,22.56
2022-08-09T09:41:28.174Z,22.63
2022-08-09T09:44:12.543Z,22.72
2022-08-09T09:46:51.969Z,22.78
2022-08-09T09:49:23.611Z,22.85
2022-08-09T09:52:05.515Z,22.92
2022-08-09T09:54:41.051Z,23.00
2022-08-09T09:58:04.302Z,23.06
2022-08-09T10:00:26.713Z,23.13
2022-08-09T10:02:55.451Z,23.19
2022-08-09T10:05:27.108Z,23.25
2022-08-09T10:08:28.012Z,23.33
2022-08-09T10:10:58.438Z,23.38
2022-08-09T10:13:43.088Z,23.43
2022-08-09T10:16:56.665Z,23.50
2022-08-09T10:19:07.080Z,23.56
2022-08-09T10:21:48.687Z,23.62
2022-08-09T10:24:25.745Z,23.69
2022-08-09T10:27:10.254Z,23.76
2022-08-09T10:30:49.286Z,23.82
2022-08-09T10:32:42.778Z,23.88
2022-08-09T10:35:13.639Z,23.95
2022-08-09T10:37:44.851Z,24.02
2022-08-09T10:40:33.480Z,24.10
2022-08-09T10:43:08.111Z,24.21
2022-08-09T10:45:49.329Z,24.32
2022-08-09T10:48:34.328Z,24.43
2022-08-09T10:51:15.041Z,24.51
2022-08-09T10:53:54.471Z,24.60
2022-08-09T10:56:25.452Z,24.67
2022-08-09T10:58:57.334Z,24.79
2022-08-09T11:03:14.278Z,24.90
2022-08-09T11:04:32.533Z,24.97
2022-08-09T11:07:28.075Z,25.00
2022-08-09T11:11:00.854Z,24.98
2022-08-09T11:13:53.806Z,25.00
2022-08-09T11:16:38.181Z,25.06
2022-08-09T11:19:10.456Z,25.12
2022-08-09T11:21:57.203Z,25.22
2022-08-09T11:25:12.756Z,25.31
2022-08-09T11:28:04.884Z,25.39
2022-08-09T11:30:37.582Z,25.47
2022-08-09T11:33:25.187Z,25.55
2022-08-09T11:35:57.095Z,25.67
2022-08-09T11:38:28.883Z,25.73
2022-08-09T11:41:38.019Z,25.84
2022-08-09T11:44:09.437Z,26.01
2022-08-09T11:46:58.140Z,26.15
2022-08-09T11:50:54.186Z,26.28
2022-08-09T11:53:59.066Z,26.40
2022-08-09T11:56:41.380Z,26.52
2022-08-09T11:59:14.447Z,26.63
2022-08-09T12:02:16.550Z,26.75
2022-08-09T12:04:38.108Z,26.84
2022-08-09T12:07:08.960Z,26.91
2022-08-09T12:09:37.771Z,27.00
2022-08-09T12:12:20.060Z,27.06
2022-08-09T12:15:03.827Z,27.14
2022-08-09T12:17:44.542Z,27.15
2022-08-09T12:20:21.830Z,27.23
2022-08-09T12:22:56.084Z,27.27
2022-08-09T12:25:36.060Z,27.30
2022-08-09T12:29:12.229Z,27.38
2022-08-09T12:31:11.253Z,27.48
2022-08-09T12:34:01.213Z,27.55
2022-08-09T12:36:36.016Z,27.67
2022-08-09T12:39:15.248Z,27.79
2022-08-09T12:41:43.684Z,27.86
2022-08-09T12:44:13.343Z,27.89
2022-08-09T12:46:49.075Z,27.96
2022-08-09T12:49:19.171Z,28.08
2022-08-09T12:52:02.150Z,28.12
2022-08-09T12:54:52.231Z,28.25
2022-08-09T12:57:46.183Z,28.38
2022-08-09T13:00:25.162Z,28.49
2022-08-09T13:02:57.178Z,28.59
2022-08-09T13:05:51.461Z,28.69
2022-08-09T13:08:40.195Z,28.83
2022-08-09T13:11:22.975Z,28.93
2022-08-09T13:14:43.664Z,29.04
2022-08-09T13:16:48.440Z,29.10
2022-08-09T13:20:10.818Z,29.17
2022-08-09T13:22:37.982Z,29.26
2022-08-09T13:25:11.865Z,29.41
2022-08-09T13:27:54.844Z,29.57
2022-08-09T13:30:50.226Z,29.63
2022-08-09T13:33:23.762Z,29.77
2022-08-09T13:36:41.538Z,29.95
2022-08-09T13:38:56.700Z,30.13
2022-08-09T13:41:59.070Z,30.27
2022-08-09T13:44:17.890Z,30.37
2022-08-09T13:47:19.386Z,30.48
2022-08-09T13:49:37.778Z,30.63
2022-08-09T13:52:26.161Z,30.72
2022-08-09T13:55:00.952Z,30.72
2022-08-09T13:57:40.368Z,30.81
2022-08-09T14:00:16.581Z,30.94
2022-08-09T14:03:02.991Z,31.07
2022-08-09T14:05:59.405Z,31.17
2022-08-09T14:08:33.027Z,31.21
2022-08-09T14:11:01.559Z,31.19
2022-08-09T14:14:23.241Z,31.18
2022-08-09T14:16:28.604Z,31.06
2022-08-09T14:18:58.428Z,31.09
2022-08-09T14:21:29.343Z,31.19
2022-08-09T14:24:01.149Z,31.27
2022-08-09T14:26:38.980Z,31.32
2022-08-09T14:30:04.359Z,31.40
2022-08-09T14:32:06.019Z,31.46
2022-08-09T14:34:41.247Z,31.56
2022-08-09T14:37:10.661Z,31.72
2022-08-09T14:39:48.016Z,31.89
2022-08-09T14:42:32.158Z,32.02
2022-08-09T14:46:45.958Z,32.05
2022-08-09T14:47:58.610Z,32.11
2022-08-09T14:50:32.361Z,32.22
2022-08-09T14:53:01.734Z,32.18
2022-08-09T14:55:32.763Z,32.24
2022-08-09T14:58:06.596Z,32.37
2022-08-09T15:00:36.986Z,32.53
2022-08-09T15:03:10.553Z,32.66
2022-08-09T15:05:40.353Z,32.84
2022-08-09T15:08:19.745Z,33.05
2022-08-09T15:11:00.872Z,33.20
2022-08-09T15:13:48.424Z,33.32
2022-08-09T15:16:19.576Z,33.38
2022-08-09T15:18:49.773Z,33.48
2022-08-09T15:21:54.650Z,33.58
2022-08-09T15:24:13.087Z,33.69
2022-08-09T15:26:45.990Z,33.81
2022-08-09T15:30:48.535Z,33.93
2022-08-09T15:32:03.802Z,33.94
2022-08-09T15:34:35.617Z,33.89
2022-08-09T15:37:38.218Z,33.98
2022-08-09T15:40:19.957Z,34.14
2022-08-09T15:42:50.067Z,34.21
2022-08-09T15:45:21.480Z,34.29
2022-08-09T15:48:01.847Z,34.29
2022-08-09T15:50:34.214Z,34.18
2022-08-09T15:53:17.818Z,34.14
2022-08-09T15:56:04.245Z,34.10
2022-08-09T15:58:36.439Z,34.12
2022-08-09T16:01:07.781Z,34.15
2022-08-09T16:03:38.591Z,34.16
2022-08-09T16:06:16.044Z,34.19
2022-08-09T16:09:01.254Z,34.22
2022-08-09T16:11:34.086Z,34.22
2022-08-09T16:14:07.057Z,34.14
2022-08-09T16:16:37.257Z,34.02
2022-08-09T16:19:07.553Z,33.83
2022-08-09T16:21:37.818Z,33.82
2022-08-09T16:24:09.000Z,33.90
2022-08-09T16:26:56.793Z,33.99
2022-08-09T16:29:36.822Z,33.94
2022-08-09T16:32:17.779Z,33.85
2022-08-09T16:34:56.558Z,33.70
2022-08-09T16:37:53.548Z,33.62
2022-08-09T16:40:30.005Z,33.53
2022-08-09T16:43:07.164Z,33.49
2022-08-09T16:45:43.791Z,33.53
2022-08-09T16:48:39.466Z,33.56
2022-08-09T16:51:08.406Z,33.59
2022-08-09T16:54:08.919Z,33.60
2022-08-09T16:56:33.306Z,33.53
2022-08-09T16:59:10.256Z,33.46
2022-08-09T17:01:39.440Z,33.39
2022-08-09T17:04:13.823Z,33.38
2022-08-09T17:08:40.991Z,33.34
2022-08-09T17:09:47.209Z,33.27
2022-08-09T17:12:17.464Z,33.19
2022-08-09T17:14:48.470Z,33.08
2022-08-09T17:17:26.672Z,33.00
2022-08-09T17:20:29.705Z,32.87
2022-08-09T17:22:50.047Z,32.74
2022-08-09T17:25:22.082Z,32.62
2022-08-09T17:27:54.463Z,32.48
2022-08-09T17:30:25.977Z,32.27
2022-08-09T17:33:00.703Z,32.05
2022-08-09T17:35:36.010Z,31.78
2022-08-09T17:38:13.026Z,31.52
2022-08-09T17:40:47.313Z,31.26
2022-08-09T17:43:34.830Z,31.05
2022-08-09T17:46:07.570Z,30.84
2022-08-09T17:48:52.024Z,30.64
2022-08-09T17:51:22.213Z,30.43
2022-08-09T17:53:55.239Z,30.20
2022-08-09T17:56:29.268Z,30.01
2022-08-09T17:59:09.449Z,29.82
2022-08-09T18:02:10.799Z,29.62
2022-08-09T18:04:29.246Z,29.43
2022-08-09T18:06:59.105Z,29.28
2022-08-09T18:09:40.540Z,29.16
2022-08-09T18:12:17.614Z,28.99
2022-08-09T18:14:56.441Z,28.88
2022-08-09T18:17:27.206Z,28.76
2022-08-09T18:20:57.099Z,28.65
2022-08-09T18:23:14.153Z,28.54
2022-08-09T18:25:58.285Z,28.43
2022-08-09T18:30:34.624Z,28.32
2022-08-09T18:31:19.146Z,28.20
2022-08-09T18:34:01.110Z,28.08
2022-08-09T18:36:32.417Z,27.99
2022-08-09T18:39:05.143Z,27.91
2022-08-09T18:41:35.538Z,27.82
2022-08-09T18:44:10.642Z,27.72
2022-08-09T18:46:50.971Z,27.64
2022-08-09T18:49:26.582Z,27.56
2022-08-09T18:51:58.158Z,27.47
2022-08-09T18:54:28.603Z,27.39
2022-08-09T18:57:05.275Z,27.29
2022-08-09T18:59:49.080Z,27.20
2022-08-09T19:02:20.963Z,27.11
2022-08-09T19:05:14.042Z,27.03
2022-08-09T19:08:04.875Z,26.95
2022-08-09T19:10:39.587Z,26.85
2022-08-09T19:13:20.932Z,26.78
2022-08-09T19:15:55.594Z,26.70
2022-08-09T19:18:35.715Z,26.64
2022-08-09T19:21:09.873Z,26.57
2022-08-09T19:24:36.494Z,26.50
2022-08-09T19:26:30.989Z,26.39
2022-08-09T19:29:03.140Z,26.33
2022-08-09T19:31:45.242Z,26.27
2022-08-09T19:34:22.790Z,26.20
2022-08-09T19:36:52.970Z,26.14
2022-08-09T19:39:29.057Z,26.09
2022-08-09T19:42:14.539Z,26.00
2022-08-09T19:44:44.214Z,25.96
2022-08-09T19:47:22.755Z,25.90
2022-08-09T19:50:08.425Z,25.83
2022-08-09T19:52:49.682Z,25.75
2022-08-09T19:55:30.742Z,25.68
2022-08-09T19:58:16.423Z,25.63
2022-08-09T20:00:46.435Z,25.58
2022-08-09T20:04:17.216Z,25.52
2022-08-09T20:06:22.537Z,25.46
2022-08-09T20:08:55.334Z,25.39
2022-08-09T20:11:42.892Z,25.33
2022-08-09T20:14:16.433Z,25.28
2022-08-09T20:16:53.874Z,25.23
2022-08-09T20:19:47.459Z,25.18
2022-08-09T20:22:13.982Z,25.12
2022-08-09T20:24:54.197Z,25.08
2022-08-09T20:27:23.263Z,25.03
2022-08-09T20:29:52.210Z,24.98
2022-08-09T20:32:30.086Z,24.93
2022-08-09T20:35:02.131Z,24.84
2022-08-09T20:37:37.774Z,24.76
2022-08-09T20:40:26.795Z,24.67
2022-08-09T20:43:00.131Z,24.60
2022-08-09T20:45:59.461Z,24.50
2022-08-09T20:48:31.583Z,24.44
2022-08-09T20:51:03.113Z,24.40
2022-08-09T20:53:37.355Z,24.35
2022-08-09T20:56:20.713Z,24.30
2022-08-09T20:58:57.770Z,24.24
2022-08-09T21:01:34.400Z,24.20
2022-08-09T21:05:48.750Z,24.15
2022-08-09T21:07:11.255Z,24.08
2022-08-09T21:09:45.749Z,24.03
2022-08-09T21:15:15.065Z,23.92
2022-08-09T21:18:22.878Z,23.87
2022-08-09T21:20:32.087Z,23.84
2022-08-09T21:23:01.803Z,23.78
2022-08-09T21:25:55.871Z,23.74
2022-08-09T21:28:34.074Z,23.69
2022-08-09T21:31:16.653Z,23.65
2022-08-09T21:33:50.986Z,23.59
2022-08-09T21:36:23.540Z,23.55
2022-08-09T21:38:57.958Z,23.52
2022-08-09T21:41:59.707Z,23.47
2022-08-09T21:44:34.543Z,23.42
2022-08-09T21:47:05.793Z,23.37
2022-08-09T21:49:39.882Z,23.31
2022-08-09T21:52:15.073Z,23.26
2022-08-09T21:54:59.271Z,23.23
2022-08-09T21:57:38.199Z,23.20
2022-08-09T22:00:12.565Z,23.17
2022-08-09T22:02:43.853Z,23.15
2022-08-09T22:05:22.781Z,23.11
2022-08-09T22:07:53.397Z,23.07
2022-08-09T22:10:24.413Z,23.03
2022-08-09T22:12:55.693Z,22.99
2022-08-09T22:15:35.125Z,22.96
2022-08-09T22:18:08.291Z,22.92
2022-08-09T22:20:41.196Z,22.90
2022-08-09T22:23:10.307Z,22.86
2022-08-09T22:26:06.103Z,22.83
2022-08-09T22:28:32.909Z,22.80
2022-08-09T22:31:02.277Z,22.77
2022-08-09T22:33:48.784Z,22.74
2022-08-09T22:36:19.306Z,22.70
2022-08-09T22:38:48.618Z,22.69
2022-08-09T22:41:19.275Z,22.66
2022-08-09T22:44:01.250Z,22.61
2022-08-09T22:48:10.861Z,22.58
2022-08-09T22:49:22.632Z,22.55
2022-08-09T22:51:56.955Z,22.53
2022-08-09T22:54:27.539Z,22.49
2022-08-09T22:56:58.662Z,22.47
2022-08-09T22:59:56.884Z,22.44
2022-08-09T23:02:20.098Z,22.40
2022-08-09T23:04:53.668Z,22.38
2022-08-09T23:08:21.097Z,22.36
2022-08-09T23:10:30.958Z,22.32
2022-08-09T23:13:00.864Z,22.30
2022-08-09T23:15:30.007Z,22.26
2022-08-09T23:17:58.591Z,22.23
2022-08-09T23:20:28.643Z,22.19
2022-08-09T23:22:57.046Z,22.17
2022-08-09T23:25:25.376Z,22.14
2022-08-09T23:28:14.441Z,22.13
2022-08-09T23:30:52.058Z,22.09
2022-08-09T23:33:21.129Z,22.06
2022-08-09T23:36:04.862Z,22.03
2022-08-09T23:38:36.028Z,22.00
2022-08-09T23:43:58.850Z,21.94
2022-08-09T23:46:29.143Z,21.90
2022-08-09T23:48:57.919Z,21.88
2022-08-09T23:51:26.903Z,21.87
2022-08-09T23:54:02.210Z,21.84
2022-08-09T23:56:53.351Z,21.80
2022-08-09T23:59:20.945Z,21.78
